Time;durP1;ratioP1;P1;durP2;ratioP2;P2;SDS_P1;SDS_P2;PMS_P1;PMS_P2;Temp;Humidity;BMP_temperature;BMP_pressure;BME280_temperature;BME280_humidity;BME280_pressure;Samples;Min_cycle;Max_cycle;Signal;HPM_P1;HPM_P2
2023/06/22 00:00:11;;;;;;;;;;;24.10;99.90;24.20;99315.00;;;;345884;28;83523;-94
2023/06/22 00:00:24;;;;;;;;;;;24.10;99.90;24.10;99310.00;;;;347084;28;85364;-94
2023/06/22 00:00:35;;;;;;;;;;;24.10;99.90;24.00;99310.00;;;;346197;28;82466;-96
2023/06/22 00:00:48;;;;;;;;;;;24.10;99.90;24.20;99313.00;;;;346979;28;82698;-94
2023/06/22 00:01:01;;;;;;;;;;;24.10;99.90;24.20;99314.00;;;;347297;28;82603;-96
2023/06/22 00:01:13;;;;;;;;;;;24.10;99.90;24.20;99314.00;;;;347196;28;86431;-94
2023/06/22 00:01:24;;;;;;;;;;;24.10;99.90;24.10;99317.00;;;;347241;28;82369;-95
2023/06/22 00:01:37;;;;;;;;;;;24.10;99.90;24.00;99308.00;;;;344687;28;84335;-95
2023/06/22 00:01:49;;;;;;;;;;;24.10;99.90;24.10;99314.00;;;;344858;28;83430;-94
2023/06/22 00:02:01;;;;;;;;;;;24.10;99.90;24.10;99312.00;;;;347511;28;83127;-95
2023/06/22 00:02:13;;;;;;;;;;;24.10;99.90;24.20;99309.00;;;;348750;27;83489;-95
2023/06/22 00:02:25;;;;;;;;;;;24.10;99.90;24.20;99310.00;;;;345933;28;84321;-94
2023/06/22 00:02:37;;;;;;;;;;;24.10;99.90;24.20;99309.00;;;;346231;28;82478;-95
2023/06/22 00:02:49;;;;;;;;;;;24.10;99.90;24.20;99304.00;;;;346078;28;84380;-95
2023/06/22 00:03:01;;;;;;;;;;;24.10;99.90;24.20;99313.00;;;;344817;28;82425;-95
2023/06/22 00:03:13;;;;;;;;;;;24.10;99.90;24.20;99310.00;;;;346159;28;85515;-94
2023/06/22 00:03:25;;;;;;;;;;;24.10;99.90;24.20;99304.00;;;;347239;28;82590;-95
2023/06/22 00:03:37;;;;;;;;;;;24.10;99.90;24.20;99297.00;;;;345966;28;83194;-95
2023/06/22 00:03:49;;;;;;;;;;;24.10;99.90;24.10;99297.00;;;;347125;28;82558;-95
2023/06/22 00:04:01;;;;;;;;;;;24.10;99.90;24.20;99309.00;;;;345793;28;84331;-94
2023/06/22 00:04:13;;;;;;;;;;;24.10;99.90;24.20;99305.00;;;;347219;28;82518;-94
2023/06/22 00:04:25;;;;;;;;;;;24.10;99.90;24.10;99306.00;;;;347369;28;82816;-95
2023/06/22 00:04:37;;;;;;;;;;;24.10;99.90;24.10;99308.00;;;;345899;28;82553;-95
2023/06/22 00:04:48;;;;;;;;;;;24.10;99.90;24.10;99309.00;;;;345577;28;82778;-95
2023/06/22 00:05:00;;;;;;;;;;;24.10;99.90;24.10;99314.00;;;;344608;28;82572;-94
2023/06/22 00:05:12;;;;;;;;;;;24.10;99.90;24.20;99312.00;;;;347236;28;85560;-95
2023/06/22 00:05:24;;;;;;;;;;;24.10;99.90;24.20;99315.00;;;;347481;28;83457;-95
2023/06/22 00:05:36;;;;;;;;;;;24.10;99.90;24.20;99311.00;;;;347528;28;82718;-95
2023/06/22 00:05:48;;;;;;;;;;;24.10;99.90;24.10;99308.00;;;;347355;28;82657;-95
2023/06/22 00:06:00;;;;;;;;;;;24.10;99.90;24.10;99307.00;;;;348549;27;86258;-95
2023/06/22 00:06:12;;;;;;;;;;;24.10;99.90;24.10;99312.00;;;;347438;28;82547;-95
2023/06/22 00:06:24;;;;;;;;;;;24.10;99.90;24.10;99319.00;;;;347073;28;85406;-95
2023/06/22 00:06:36;;;;;;;;;;;24.10;99.90;24.00;99307.00;;;;346273;28;83294;-95
2023/06/22 00:06:49;;;;;;;;;;;24.10;99.90;24.00;99313.00;;;;348431;27;82342;-94
2023/06/22 00:07:01;;;;;;;;;;;24.10;99.90;24.00;99308.00;;;;346185;28;82446;-95
2023/06/22 00:07:13;;;;;;;;;;;24.10;99.90;24.00;99314.00;;;;350006;27;83851;-94
2023/06/22 00:07:25;;;;;;;;;;;24.10;99.90;24.00;99311.00;;;;347396;28;82464;-94
2023/06/22 00:07:37;;;;;;;;;;;24.10;99.90;24.00;99311.00;;;;345773;28;85241;-93
2023/06/22 00:07:49;;;;;;;;;;;24.10;99.90;24.10;99322.00;;;;347534;27;82408;-95
2023/06/22 00:08:03;;;;;;;;;;;24.10;99.90;24.10;99309.00;;;;347254;28;85372;-95
2023/06/22 00:08:15;;;;;;;;;;;24.00;99.90;24.10;99313.00;;;;347423;28;82567;-94
2023/06/22 00:08:27;;;;;;;;;;;24.00;99.90;24.10;99315.00;;;;347154;28;85389;-94
2023/06/22 00:08:40;;;;;;;;;;;24.00;99.90;24.10;99310.00;;;;347379;28;82636;-94
2023/06/22 00:08:51;;;;;;;;;;;24.00;99.90;24.10;99311.00;;;;346742;28;84333;-94
2023/06/22 00:09:03;;;;;;;;;;;24.00;99.90;24.10;99314.00;;;;346192;28;82420;-94
2023/06/22 00:09:15;;;;;;;;;;;24.00;99.90;24.00;99316.00;;;;347542;28;85321;-94
2023/06/22 00:09:27;;;;;;;;;;;24.00;99.90;24.00;99318.00;;;;345831;28;82328;-94
2023/06/22 00:09:39;;;;;;;;;;;24.00;99.90;24.00;99320.00;;;;347405;28;83826;-94
2023/06/22 00:09:51;;;;;;;;;;;24.00;99.90;24.00;99315.00;;;;347529;28;83394;-94
2023/06/22 00:10:03;;;;;;;;;;;24.00;99.90;24.00;99309.00;;;;344810;28;84316;-94
2023/06/22 00:10:15;;;;;;;;;;;24.00;99.90;24.10;99304.00;;;;346104;28;82567;-94
2023/06/22 00:10:26;;;;;;;;;;;24.00;99.90;24.10;99310.00;;;;347407;28;85345;-95
2023/06/22 00:10:39;;;;;;;;;;;24.00;99.90;24.00;99297.00;;;;348714;27;83409;-94
2023/06/22 00:10:51;;;;;;;;;;;24.00;99.90;24.00;99306.00;;;;347198;28;84155;-94
2023/06/22 00:11:03;;;;;;;;;;;24.00;99.90;24.00;99305.00;;;;347343;27;82559;-94
2023/06/22 00:11:14;;;;;;;;;;;24.00;99.90;24.00;99310.00;;;;347522;28;83669;-94
2023/06/22 00:11:27;;;;;;;;;;;24.00;99.90;23.90;99315.00;;;;347430;28;82539;-93
2023/06/22 00:11:39;;;;;;;;;;;24.00;99.90;23.90;99306.00;;;;346873;28;83064;-94
2023/06/22 00:11:51;;;;;;;;;;;24.00;99.90;23.90;99296.00;;;;347573;28;82397;-94
2023/06/22 00:12:04;;;;;;;;;;;24.00;99.90;23.90;99299.00;;;;346045;28;84256;-94
2023/06/22 00:12:16;;;;;;;;;;;24.00;99.90;23.90;99305.00;;;;345906;28;82466;-94
2023/06/22 00:12:28;;;;;;;;;;;23.90;99.90;23.90;99300.00;;;;346026;28;83845;-94
2023/06/22 00:12:40;;;;;;;;;;;23.90;99.90;23.90;99293.00;;;;346079;28;82562;-94
2023/06/22 00:12:52;;;;;;;;;;;23.90;99.90;23.90;99295.00;;;;347414;28;84253;-94
2023/06/22 00:13:04;;;;;;;;;;;23.90;99.90;23.90;99292.00;;;;347269;28;82540;-95
2023/06/22 00:13:17;;;;;;;;;;;23.90;99.90;24.00;99294.00;;;;346188;28;82504;-95
2023/06/22 00:13:29;;;;;;;;;;;23.90;99.90;24.00;99292.00;;;;347416;28;82604;-95
2023/06/22 00:13:41;;;;;;;;;;;23.90;99.90;24.00;99289.00;;;;347375;27;83019;-95
2023/06/22 00:13:53;;;;;;;;;;;23.90;99.90;24.00;99284.00;;;;348846;27;82493;-94
2023/06/22 00:14:05;;;;;;;;;;;23.90;99.90;24.00;99284.00;;;;348619;27;85341;-95
2023/06/22 00:14:16;;;;;;;;;;;23.90;99.90;24.10;99286.00;;;;347704;28;82381;-95
2023/06/22 00:14:28;;;;;;;;;;;23.90;99.90;24.10;99286.00;;;;346948;28;82984;-94
2023/06/22 00:14:40;;;;;;;;;;;23.90;99.90;24.10;99291.00;;;;346055;28;82518;-95
2023/06/22 00:14:52;;;;;;;;;;;23.90;99.90;23.90;99287.00;;;;345954;28;83035;-94
2023/06/22 00:15:04;;;;;;;;;;;23.90;99.90;24.00;99285.00;;;;346223;28;82431;-94
2023/06/22 00:15:16;;;;;;;;;;;23.90;99.90;24.10;99289.00;;;;347498;28;85665;-95
2023/06/22 00:15:28;;;;;;;;;;;23.90;99.90;24.10;99288.00;;;;347540;28;83540;-94
2023/06/22 00:15:41;;;;;;;;;;;23.90;99.90;24.10;99289.00;;;;346074;28;84270;-93
2023/06/22 00:15:53;;;;;;;;;;;23.90;99.90;24.10;99286.00;;;;348760;27;82613;-94
2023/06/22 00:16:05;;;;;;;;;;;24.00;99.90;24.10;99288.00;;;;348984;27;85952;-94
2023/06/22 00:16:17;;;;;;;;;;;23.90;99.90;24.10;99287.00;;;;347401;28;82535;-94
2023/06/22 00:16:28;;;;;;;;;;;23.90;99.90;24.10;99293.00;;;;347259;28;82959;-94
2023/06/22 00:16:42;;;;;;;;;;;23.90;99.90;24.10;99291.00;;;;346363;28;82452;-94
2023/06/22 00:16:57;;;;;;;;;;;23.90;99.90;24.10;99289.00;;;;347402;28;85290;-94
2023/06/22 00:19:41;;;;;;;;;;;23.90;99.90;24.10;99289.00;;;;239869;28;88290;-87
2023/06/22 00:19:55;;;;;;;;;;;23.90;99.90;24.00;99291.00;;;;341574;28;85208;-94
2023/06/22 00:20:08;;;;;;;;;;;24.00;99.90;24.00;99288.00;;;;340624;28;82607;-95
2023/06/22 00:20:20;;;;;;;;;;;24.00;99.90;24.00;99284.00;;;;340514;28;85948;-94
2023/06/22 00:20:32;;;;;;;;;;;23.90;99.90;24.00;99283.00;;;;339355;28;82515;-94
2023/06/22 00:20:45;;;;;;;;;;;23.90;99.90;24.00;99280.00;;;;339235;28;86486;-96
2023/06/22 00:20:58;;;;;;;;;;;23.90;99.90;23.90;99279.00;;;;340740;28;82311;-96
2023/06/22 00:21:12;;;;;;;;;;;23.90;99.90;23.80;99275.00;;;;339138;28;88185;-94
2023/06/22 00:21:24;;;;;;;;;;;23.90;99.90;23.80;99283.00;;;;336772;28;82357;-93
2023/06/22 00:21:37;;;;;;;;;;;23.90;99.90;23.90;99276.00;;;;339363;28;86117;-94
2023/06/22 00:21:52;;;;;;;;;;;23.90;99.90;23.80;99278.00;;;;339247;28;83400;-94
2023/06/22 00:22:04;;;;;;;;;;;23.90;99.90;23.90;99275.00;;;;337863;28;86866;-94
2023/06/22 00:22:16;;;;;;;;;;;23.90;99.90;23.80;99268.00;;;;339153;28;82564;-94
2023/06/22 00:22:28;;;;;;;;;;;23.90;99.90;23.90;99280.00;;;;340295;28;85712;-94
2023/06/22 00:22:42;;;;;;;;;;;23.90;99.90;23.90;99272.00;;;;340467;28;83562;-94
2023/06/22 00:22:55;;;;;;;;;;;23.80;99.90;23.90;99272.00;;;;339287;28;86371;-94
2023/06/22 00:23:09;;;;;;;;;;;23.90;99.90;23.90;99267.00;;;;339143;28;82464;-94
2023/06/22 00:23:23;;;;;;;;;;;23.80;99.90;24.00;99273.00;;;;340602;28;85375;-95
2023/06/22 00:23:35;;;;;;;;;;;23.80;99.90;24.00;99270.00;;;;340577;28;83458;-94
2023/06/22 00:23:47;;;;;;;;;;;23.80;99.90;24.10;99272.00;;;;337792;28;86572;-94
2023/06/22 00:23:59;;;;;;;;;;;23.80;99.90;23.90;99271.00;;;;339958;28;82601;-94
2023/06/22 00:24:10;;;;;;;;;;;23.80;99.90;23.90;99268.00;;;;337919;28;87010;-95
2023/06/22 00:24:24;;;;;;;;;;;23.80;99.90;23.90;99278.00;;;;338001;28;82559;-95
2023/06/22 00:24:36;;;;;;;;;;;23.80;99.90;23.90;99280.00;;;;338975;28;89082;-94
2023/06/22 00:24:47;;;;;;;;;;;23.80;99.90;24.00;99272.00;;;;337998;28;82575;-95
2023/06/22 00:24:59;;;;;;;;;;;23.80;99.90;23.90;99274.00;;;;340334;28;89879;-94
2023/06/22 00:25:11;;;;;;;;;;;23.80;99.90;23.90;99276.00;;;;342057;28;82593;-95
2023/06/22 00:25:23;;;;;;;;;;;23.80;99.90;24.00;99274.00;;;;339983;28;90376;-95
2023/06/22 00:25:36;;;;;;;;;;;23.80;99.90;24.00;99268.00;;;;340829;28;82385;-94
2023/06/22 00:25:48;;;;;;;;;;;23.80;99.90;23.90;99267.00;;;;338904;28;89910;-94
2023/06/22 00:26:00;;;;;;;;;;;23.80;99.90;23.90;99273.00;;;;337947;28;83431;-95
2023/06/22 00:26:13;;;;;;;;;;;23.80;99.90;23.80;99275.00;;;;337611;28;90283;-94
2023/06/22 00:26:25;;;;;;;;;;;23.80;99.90;23.70;99274.00;;;;340697;28;83448;-93
2023/06/22 00:26:36;;;;;;;;;;;23.80;99.90;23.90;99276.00;;;;340122;28;90657;-94
2023/06/22 00:26:48;;;;;;;;;;;23.80;99.90;24.00;99271.00;;;;339461;28;82427;-94
2023/06/22 00:27:00;;;;;;;;;;;23.80;99.90;24.00;99265.00;;;;339615;28;90233;-94
2023/06/22 00:27:12;;;;;;;;;;;23.80;99.90;24.00;99275.00;;;;337957;28;82549;-94
2023/06/22 00:27:24;;;;;;;;;;;23.80;99.90;23.90;99266.00;;;;340234;28;92420;-94
2023/06/22 00:27:36;;;;;;;;;;;23.80;99.90;23.90;99269.00;;;;337941;28;82512;-94
2023/06/22 00:27:48;;;;;;;;;;;23.80;99.90;23.80;99270.00;;;;338736;28;91584;-94
2023/06/22 00:28:00;;;;;;;;;;;23.80;99.90;23.90;99270.00;;;;339308;28;82517;-95
2023/06/22 00:28:12;;;;;;;;;;;23.80;99.90;23.90;99270.00;;;;338775;28;90921;-94
2023/06/22 00:28:24;;;;;;;;;;;23.80;99.90;23.90;99269.00;;;;339130;28;82622;-95
2023/06/22 00:28:35;;;;;;;;;;;23.80;99.90;23.90;99266.00;;;;337569;28;91052;-96
2023/06/22 00:28:47;;;;;;;;;;;23.80;99.90;23.90;99265.00;;;;338034;28;83419;-95
2023/06/22 00:28:59;;;;;;;;;;;23.80;99.90;23.90;99265.00;;;;338671;28;90570;-96
2023/06/22 00:29:11;;;;;;;;;;;23.80;99.90;23.90;99259.00;;;;338043;28;82463;-96
2023/06/22 00:29:23;;;;;;;;;;;23.80;99.90;24.00;99266.00;;;;340235;28;91852;-95
2023/06/22 00:29:36;;;;;;;;;;;23.80;99.90;24.00;99258.00;;;;340618;28;82385;-96
2023/06/22 00:29:48;;;;;;;;;;;23.80;99.90;24.00;99258.00;;;;338888;28;90816;-94
2023/06/22 00:30:00;;;;;;;;;;;23.80;99.90;24.00;99267.00;;;;340659;28;82523;-96
2023/06/22 00:30:12;;;;;;;;;;;23.80;99.90;24.00;99249.00;;;;341692;28;90614;-95
2023/06/22 00:30:24;;;;;;;;;;;23.80;99.90;24.00;99256.00;;;;340435;28;83488;-95
2023/06/22 00:30:36;;;;;;;;;;;23.80;99.90;24.00;99257.00;;;;340329;28;90347;-95
2023/06/22 00:30:48;;;;;;;;;;;23.80;99.90;24.00;99249.00;;;;340605;28;82544;-96
2023/06/22 00:31:01;;;;;;;;;;;23.80;99.90;23.90;99257.00;;;;340172;28;89974;-95
2023/06/22 00:31:13;;;;;;;;;;;23.80;99.90;23.90;99260.00;;;;340651;28;82527;-95
2023/06/22 00:31:25;;;;;;;;;;;23.80;99.90;23.90;99255.00;;;;338801;28;90537;-95
2023/06/22 00:31:37;;;;;;;;;;;23.80;99.90;23.90;99259.00;;;;339178;28;82506;-95
2023/06/22 00:31:49;;;;;;;;;;;23.80;99.90;23.90;99251.00;;;;337564;28;90674;-96
2023/06/22 00:32:01;;;;;;;;;;;23.80;99.90;23.90;99260.00;;;;340575;28;82516;-96
2023/06/22 00:32:12;;;;;;;;;;;23.80;99.90;23.90;99255.00;;;;341454;28;89567;-95
2023/06/22 00:32:24;;;;;;;;;;;23.80;99.90;24.00;99247.00;;;;336792;28;82488;-95
2023/06/22 00:32:36;;;;;;;;;;;23.80;99.90;24.00;99253.00;;;;339050;28;90669;-96
2023/06/22 00:32:48;;;;;;;;;;;23.80;99.90;24.00;99248.00;;;;342204;28;82581;-95
2023/06/22 00:33:00;;;;;;;;;;;23.80;99.90;23.90;99256.00;;;;338924;28;90215;-94
2023/06/22 00:33:12;;;;;;;;;;;23.80;99.90;24.00;99247.00;;;;339467;28;82606;-95
2023/06/22 00:33:24;;;;;;;;;;;23.80;99.90;23.90;99249.00;;;;340391;28;91737;-95
2023/06/22 00:33:36;;;;;;;;;;;23.80;99.90;23.80;99251.00;;;;339580;28;82472;-95
2023/06/22 00:33:50;;;;;;;;;;;23.80;99.90;23.90;99251.00;;;;341718;28;89128;-95
2023/06/22 00:34:02;;;;;;;;;;;23.80;99.90;23.90;99251.00;;;;340868;28;82502;-95
2023/06/22 00:34:14;;;;;;;;;;;23.80;99.90;23.90;99243.00;;;;340341;28;90830;-95
2023/06/22 00:34:25;;;;;;;;;;;23.80;99.90;23.90;99244.00;;;;343255;28;83581;-95
2023/06/22 00:34:37;;;;;;;;;;;23.80;99.90;23.70;99246.00;;;;340303;28;90625;-95
2023/06/22 00:34:50;;;;;;;;;;;23.80;99.90;23.80;99250.00;;;;338130;28;82553;-95
2023/06/22 00:35:02;;;;;;;;;;;23.80;99.90;23.80;99247.00;;;;338792;28;89587;-95
2023/06/22 00:35:14;;;;;;;;;;;23.70;99.90;23.90;99247.00;;;;340817;28;83458;-95
2023/06/22 00:35:29;;;;;;;;;;;23.80;99.90;23.90;99241.00;;;;339065;28;91118;-95
2023/06/22 00:35:41;;;;;;;;;;;23.70;99.90;23.80;99244.00;;;;339507;28;82369;-96
2023/06/22 00:35:53;;;;;;;;;;;23.70;99.90;23.90;99241.00;;;;337883;28;90563;-94
2023/06/22 00:36:07;;;;;;;;;;;23.70;99.90;23.90;99246.00;;;;339437;28;82530;-94
2023/06/22 00:36:19;;;;;;;;;;;23.70;99.90;23.90;99245.00;;;;340267;28;91572;-94
2023/06/22 00:36:31;;;;;;;;;;;23.70;99.90;24.00;99243.00;;;;340734;28;82501;-95
2023/06/22 00:36:43;;;;;;;;;;;23.70;99.90;23.90;99243.00;;;;338799;28;88904;-95
2023/06/22 00:36:54;;;;;;;;;;;23.70;99.90;23.80;99242.00;;;;339333;28;83485;-94
2023/06/22 00:37:06;;;;;;;;;;;23.80;99.90;23.80;99241.00;;;;339990;28;90408;-95
2023/06/22 00:37:18;;;;;;;;;;;23.70;99.90;23.80;99242.00;;;;340534;28;82634;-95
2023/06/22 00:37:30;;;;;;;;;;;23.70;99.90;23.80;99243.00;;;;340060;28;90460;-95
2023/06/22 00:37:42;;;;;;;;;;;23.70;99.90;23.90;99244.00;;;;339290;28;83464;-95
2023/06/22 00:38:04;;;;;;;;;;;23.70;99.90;23.90;99239.00;;;;338859;28;90672;-95
2023/06/22 00:38:16;;;;;;;;;;;23.70;99.90;24.00;99243.00;;;;340436;28;82497;-95
2023/06/22 00:38:28;;;;;;;;;;;23.80;99.90;23.90;99238.00;;;;341712;28;89030;-95
2023/06/22 00:38:40;;;;;;;;;;;23.70;99.90;23.90;99242.00;;;;339164;28;82572;-95
2023/06/22 00:38:52;;;;;;;;;;;23.70;99.90;23.90;99242.00;;;;338960;28;91500;-94
2023/06/22 00:39:05;;;;;;;;;;;23.80;99.90;23.90;99244.00;;;;339273;28;83406;-95
2023/06/22 00:39:17;;;;;;;;;;;23.70;99.90;24.00;99242.00;;;;338676;28;90377;-94
2023/06/22 00:39:28;;;;;;;;;;;23.80;99.90;24.00;99243.00;;;;339172;28;82531;-94
2023/06/22 00:39:40;;;;;;;;;;;23.80;99.90;23.90;99241.00;;;;340013;28;90500;-95
2023/06/22 00:39:53;;;;;;;;;;;23.80;99.90;23.80;99244.00;;;;341749;28;82623;-95
2023/06/22 00:40:05;;;;;;;;;;;23.80;99.90;23.80;99246.00;;;;338925;28;90123;-95
2023/06/22 00:40:21;;;;;;;;;;;23.80;99.90;23.80;99244.00;;;;339217;28;83502;-95
2023/06/22 00:40:33;;;;;;;;;;;23.70;99.90;23.70;99241.00;;;;337577;28;89636;-94
2023/06/22 00:40:45;;;;;;;;;;;23.70;99.90;23.60;99239.00;;;;338073;28;82239;-95
2023/06/22 00:40:57;;;;;;;;;;;23.70;99.90;23.60;99234.00;;;;338901;28;90192;-95
2023/06/22 00:41:09;;;;;;;;;;;23.70;99.90;23.80;99240.00;;;;339036;28;84043;-96
2023/06/22 00:41:20;;;;;;;;;;;23.70;99.90;23.80;99237.00;;;;340238;28;90747;-95
2023/06/22 00:41:32;;;;;;;;;;;23.70;99.90;23.70;99239.00;;;;339406;28;83386;-95
2023/06/22 00:41:44;;;;;;;;;;;23.70;99.90;23.70;99234.00;;;;340093;28;92207;-96
2023/06/22 00:41:56;;;;;;;;;;;23.70;99.90;23.70;99228.00;;;;340744;28;82397;-95
2023/06/22 00:42:08;;;;;;;;;;;23.70;99.90;23.70;99223.00;;;;338711;28;89463;-95
2023/06/22 00:42:20;;;;;;;;;;;23.70;99.90;23.70;99224.00;;;;340568;28;83496;-95
2023/06/22 00:42:32;;;;;;;;;;;23.70;99.90;23.70;99224.00;;;;338906;28;90788;-96
2023/06/22 00:42:44;;;;;;;;;;;23.70;99.90;23.70;99215.00;;;;339157;28;83472;-94
2023/06/22 00:42:55;;;;;;;;;;;23.70;99.90;23.60;99229.00;;;;338791;28;90424;-96
2023/06/22 00:43:07;;;;;;;;;;;23.70;99.90;23.70;99214.00;;;;337935;28;83166;-95
2023/06/22 00:43:20;;;;;;;;;;;23.70;99.90;23.80;99223.00;;;;340158;28;90823;-96
2023/06/22 00:43:32;;;;;;;;;;;23.70;99.90;23.80;99222.00;;;;339338;28;82416;-95
2023/06/22 00:43:44;;;;;;;;;;;23.70;99.90;23.80;99225.00;;;;339872;28;90214;-95
2023/06/22 00:43:56;;;;;;;;;;;23.70;99.90;23.80;99219.00;;;;339324;28;82614;-96
2023/06/22 00:44:08;;;;;;;;;;;23.70;99.90;23.80;99223.00;;;;337490;28;91666;-95
2023/06/22 00:44:20;;;;;;;;;;;23.70;99.90;23.70;99221.00;;;;339111;28;83596;-96
2023/06/22 00:44:32;;;;;;;;;;;23.70;99.90;23.80;99220.00;;;;338923;28;90855;-95
2023/06/22 00:44:44;;;;;;;;;;;23.70;99.90;23.80;99226.00;;;;342085;28;83082;-95
2023/06/22 00:44:57;;;;;;;;;;;23.70;99.90;23.90;99219.00;;;;338826;28;91436;-96
2023/06/22 00:45:09;;;;;;;;;;;23.70;99.90;23.90;99215.00;;;;337871;28;82466;-96
2023/06/22 00:45:22;;;;;;;;;;;23.70;99.90;23.80;99222.00;;;;340233;28;90233;-96
2023/06/22 00:45:34;;;;;;;;;;;23.70;99.90;23.80;99214.00;;;;338045;28;82422;-95
2023/06/22 00:45:47;;;;;;;;;;;23.70;99.90;23.80;99215.00;;;;340134;28;88959;-96
2023/06/22 00:45:59;;;;;;;;;;;23.70;99.90;23.80;99218.00;;;;339312;28;83441;-96
2023/06/22 00:46:10;;;;;;;;;;;23.70;99.90;23.70;99214.00;;;;341313;28;90486;-95
2023/06/22 00:46:22;;;;;;;;;;;23.70;99.90;23.70;99228.00;;;;340584;28;83539;-95
2023/06/22 00:46:34;;;;;;;;;;;23.70;99.90;23.70;99218.00;;;;338688;28;88907;-96
2023/06/22 00:46:46;;;;;;;;;;;23.70;99.90;23.70;99217.00;;;;341847;28;82531;-96
2023/06/22 00:47:00;;;;;;;;;;;23.70;99.90;23.80;99220.00;;;;340252;28;90575;-96
2023/06/22 00:47:13;;;;;;;;;;;23.70;99.90;23.70;99218.00;;;;341642;28;82545;-95
2023/06/22 00:47:25;;;;;;;;;;;23.70;99.90;23.70;99210.00;;;;340022;28;89379;-95
2023/06/22 00:47:37;;;;;;;;;;;23.70;99.90;23.70;99214.00;;;;342080;28;82480;-95
2023/06/22 00:47:53;;;;;;;;;;;23.70;99.90;23.70;99214.00;;;;341480;28;91359;-95
2023/06/22 00:48:05;;;;;;;;;;;23.70;99.90;23.70;99217.00;;;;340670;28;83374;-96
2023/06/22 00:48:18;;;;;;;;;;;23.70;99.90;23.70;99218.00;;;;340052;28;90581;-95
2023/06/22 00:48:29;;;;;;;;;;;23.60;99.90;23.70;99214.00;;;;339240;28;82638;-96
2023/06/22 00:48:43;;;;;;;;;;;23.70;99.90;23.80;99211.00;;;;340227;28;91280;-96
2023/06/22 00:48:57;;;;;;;;;;;23.60;99.90;23.80;99218.00;;;;340497;28;83462;-96
2023/06/22 00:49:08;;;;;;;;;;;23.70;99.90;23.80;99205.00;;;;340193;28;91744;-96
2023/06/22 00:49:20;;;;;;;;;;;23.70;99.90;23.70;99218.00;;;;339273;28;82534;-96
2023/06/22 00:49:32;;;;;;;;;;;23.70;99.90;23.70;99216.00;;;;338642;28;89663;-96
2023/06/22 00:49:46;;;;;;;;;;;23.70;99.90;23.70;99216.00;;;;341751;28;82513;-95
2023/06/22 00:49:58;;;;;;;;;;;23.60;99.90;23.80;99215.00;;;;342636;28;90732;-96
2023/06/22 00:50:10;;;;;;;;;;;23.70;99.90;23.80;99215.00;;;;340654;28;82398;-95
2023/06/22 00:50:23;;;;;;;;;;;23.70;99.90;23.80;99213.00;;;;340120;28;90743;-95
2023/06/22 00:50:35;;;;;;;;;;;23.70;99.90;23.80;99204.00;;;;340693;28;83436;-95
2023/06/22 00:50:50;;;;;;;;;;;23.60;99.90;23.80;99206.00;;;;337585;28;90841;-94
2023/06/22 00:51:02;;;;;;;;;;;23.60;99.90;23.80;99213.00;;;;337939;28;82538;-96
2023/06/22 00:51:14;;;;;;;;;;;23.60;99.90;23.90;99203.00;;;;338907;28;90457;-95
2023/06/22 00:51:26;;;;;;;;;;;23.70;99.90;23.90;99210.00;;;;340598;28;83518;-95
2023/06/22 00:51:38;;;;;;;;;;;23.70;99.90;23.70;99218.00;;;;338892;28;91628;-95
2023/06/22 00:51:50;;;;;;;;;;;23.70;99.90;23.80;99214.00;;;;337691;28;82558;-95
2023/06/22 00:52:02;;;;;;;;;;;23.70;99.90;23.80;99212.00;;;;338819;28;91913;-96
2023/06/22 00:52:13;;;;;;;;;;;23.70;99.90;23.90;99204.00;;;;339198;28;82571;-95
2023/06/22 00:52:28;;;;;;;;;;;23.70;99.90;23.80;99211.00;;;;340179;28;89999;-95
2023/06/22 00:52:45;;;;;;;;;;;23.70;99.90;23.70;99212.00;;;;340698;28;82585;-95
2023/06/22 00:52:58;;;;;;;;;;;23.70;99.90;23.70;99212.00;;;;337532;28;91773;-96
2023/06/22 00:53:11;;;;;;;;;;;23.70;99.90;23.80;99210.00;;;;339222;28;82476;-95
2023/06/22 00:53:23;;;;;;;;;;;23.70;99.90;23.80;99213.00;;;;341406;28;90439;-96
2023/06/22 00:53:36;;;;;;;;;;;23.70;99.90;23.80;99213.00;;;;340560;28;82570;-95
2023/06/22 00:53:48;;;;;;;;;;;23.70;99.90;23.90;99212.00;;;;340066;28;90825;-95
2023/06/22 00:54:00;;;;;;;;;;;23.70;99.90;23.80;99216.00;;;;339273;28;82404;-95
2023/06/22 00:54:13;;;;;;;;;;;23.70;99.90;23.70;99215.00;;;;338869;28;91176;-96
2023/06/22 00:54:25;;;;;;;;;;;23.70;99.90;23.60;99215.00;;;;339315;28;82483;-96
2023/06/22 00:54:37;;;;;;;;;;;23.70;99.90;23.60;99209.00;;;;338930;28;90206;-95
2023/06/22 00:54:50;;;;;;;;;;;23.70;99.90;23.70;99212.00;;;;338021;28;82442;-95
2023/06/22 00:55:02;;;;;;;;;;;23.70;99.90;23.60;99217.00;;;;340229;28;90494;-95
2023/06/22 00:55:17;;;;;;;;;;;23.70;99.90;23.70;99217.00;;;;340691;28;82512;-96
2023/06/22 00:55:29;;;;;;;;;;;23.70;99.90;23.70;99207.00;;;;340265;28;90488;-96
2023/06/22 00:55:46;;;;;;;;;;;23.70;99.90;23.60;99216.00;;;;341922;28;82448;-96
2023/06/22 00:55:59;;;;;;;;;;;23.70;99.90;23.50;99216.00;;;;341714;28;90139;-96
2023/06/22 00:56:12;;;;;;;;;;;23.60;99.90;23.60;99212.00;;;;343366;28;82468;-96
2023/06/22 00:56:24;;;;;;;;;;;23.60;99.90;23.70;99217.00;;;;338828;28;91426;-96
2023/06/22 00:56:37;;;;;;;;;;;23.60;99.90;23.60;99215.00;;;;339286;28;82569;-96
2023/06/22 00:56:49;;;;;;;;;;;23.60;99.90;23.50;99218.00;;;;340264;28;90202;-95
2023/06/22 00:57:01;;;;;;;;;;;23.60;99.90;23.50;99215.00;;;;339273;28;82514;-95
2023/06/22 00:57:15;;;;;;;;;;;23.60;99.90;23.50;99219.00;;;;337508;28;91758;-95
2023/06/22 00:57:27;;;;;;;;;;;23.60;99.90;23.60;99220.00;;;;337970;28;83279;-96
2023/06/22 00:57:39;;;;;;;;;;;23.60;99.90;23.60;99218.00;;;;337372;28;89097;-96
2023/06/22 00:57:55;;;;;;;;;;;23.60;99.90;23.60;99215.00;;;;338013;28;82373;-96
2023/06/22 00:58:10;;;;;;;;;;;23.50;99.90;23.50;99219.00;;;;338667;28;89620;-96
2023/06/22 00:58:24;;;;;;;;;;;23.50;99.90;23.50;99210.00;;;;340516;28;83478;-96
2023/06/22 00:58:36;;;;;;;;;;;23.50;99.90;23.60;99213.00;;;;339896;28;90436;-96
2023/06/22 00:58:48;;;;;;;;;;;23.50;99.90;23.70;99221.00;;;;339373;28;82441;-95
2023/06/22 00:59:00;;;;;;;;;;;23.50;99.90;23.70;99212.00;;;;340016;28;89499;-96
2023/06/22 00:59:12;;;;;;;;;;;23.50;99.90;23.80;99216.00;;;;343160;28;82559;-96
2023/06/22 00:59:24;;;;;;;;;;;23.50;99.90;23.80;99211.00;;;;338933;28;90632;-95
2023/06/22 00:59:36;;;;;;;;;;;23.50;99.90;23.70;99201.00;;;;340296;28;82588;-94
2023/06/22 00:59:48;;;;;;;;;;;23.50;99.90;23.60;99208.00;;;;340154;28;90797;-95
2023/06/22 00:59:59;;;;;;;;;;;23.60;99.90;23.60;99206.00;;;;340475;28;83501;-95
2023/06/22 01:00:18;;;;;;;;;;;23.50;99.90;23.60;99207.00;;;;338835;28;92106;-95
2023/06/22 01:00:30;;;;;;;;;;;23.50;99.90;23.70;99203.00;;;;337927;28;83395;-96
2023/06/22 01:00:43;;;;;;;;;;;23.60;99.90;23.70;99208.00;;;;338766;28;91506;-96
2023/06/22 01:00:55;;;;;;;;;;;23.60;99.90;23.70;99209.00;;;;340711;28;82525;-96
2023/06/22 01:01:07;;;;;;;;;;;23.60;99.90;23.80;99212.00;;;;340213;28;90708;-96
2023/06/22 01:01:23;;;;;;;;;;;23.50;99.90;23.80;99209.00;;;;341978;28;82538;-96
2023/06/22 01:01:41;;;;;;;;;;;23.50;99.90;23.80;99214.00;;;;340103;28;91600;-96
2023/06/22 01:01:53;;;;;;;;;;;23.50;99.90;23.80;99212.00;;;;340659;28;82368;-95
2023/06/22 01:02:05;;;;;;;;;;;23.60;99.90;23.70;99212.00;;;;342901;28;91072;-96
2023/06/22 01:02:17;;;;;;;;;;;23.60;99.90;23.60;99210.00;;;;340491;28;83493;-96
2023/06/22 01:02:29;;;;;;;;;;;23.60;99.90;23.50;99209.00;;;;340191;28;91833;-95
2023/06/22 01:02:41;;;;;;;;;;;23.50;99.90;23.40;99199.00;;;;339131;28;82671;-95
2023/06/22 01:02:53;;;;;;;;;;;23.50;99.90;23.50;99204.00;;;;341621;28;91694;-95
2023/06/22 01:03:08;;;;;;;;;;;23.50;99.90;23.50;99205.00;;;;341716;28;83585;-96
2023/06/22 01:03:21;;;;;;;;;;;23.50;99.90;23.60;99206.00;;;;340069;28;90631;-95
2023/06/22 01:03:33;;;;;;;;;;;23.50;99.90;23.60;99205.00;;;;340580;28;82519;-95
2023/06/22 01:03:46;;;;;;;;;;;23.50;99.90;23.60;99213.00;;;;338781;28;91669;-96
2023/06/22 01:03:58;;;;;;;;;;;23.50;99.90;23.60;99210.00;;;;337976;28;82461;-95